Time;durP1;ratioP1;P1;durP2;ratioP2;P2;SDS_P1;SDS_P2;PMS_P1;PMS_P2;Temp;Humidity;BMP_temperature;BMP_pressure;BME280_temperature;BME280_humidity;BME280_pressure;Samples;Min_cycle;Max_cycle;Signal;HPM_P1;HPM_P2
2022/09/29 00:02:09;;;;;;;5.07;2.65;;;;;;;15.76;72.93;98361.56;4868416;29;20029;-90
2022/09/29 00:04:34;;;;;;;8.25;3.65;;;;;;;15.67;73.27;98363.53;4868526;29;20032;-90
2022/09/29 00:07:00;;;;;;;4.43;2.50;;;;;;;15.76;72.50;98377.06;4867548;29;20483;-91
2022/09/29 00:09:25;;;;;;;5.60;1.85;;;;;;;15.73;72.59;98373.09;4883451;29;20024;-91
2022/09/29 00:11:54;;;;;;;3.58;1.85;;;;;;;15.63;73.19;98367.22;4898576;29;20033;-91
2022/09/29 00:14:20;;;;;;;3.25;2.20;;;;;;;15.72;72.18;98371.50;4864177;29;20021;-90
2022/09/29 00:16:46;;;;;;;2.45;1.63;;;;;;;15.69;72.30;98349.63;4848844;29;20025;-90
2022/09/29 00:19:11;;;;;;;4.63;2.05;;;;;;;15.70;72.51;98362.84;4856656;29;20012;-90
2022/09/29 00:21:37;;;;;;;4.30;1.88;;;;;;;15.74;72.54;98365.75;4867594;29;20021;-90
2022/09/29 00:24:02;;;;;;;4.07;1.73;;;;;;;15.70;72.83;98356.63;4899902;29;20423;-90
2022/09/29 00:26:28;;;;;;;3.45;1.90;;;;;;;15.73;72.58;98356.03;4870411;29;20032;-91
2022/09/29 00:28:57;;;;;;;6.55;1.80;;;;;;;15.70;72.43;98354.72;4897930;29;20436;-90
2022/09/29 00:31:24;;;;;;;2.00;1.63;;;;;;;15.73;72.76;98356.03;4868422;29;20036;-90
2022/09/29 00:33:50;;;;;;;6.70;1.90;;;;;;;15.66;73.06;98361.13;4871906;29;20027;-90
2022/09/29 00:36:16;;;;;;;4.95;1.80;;;;;;;15.56;73.34;98348.72;4885629;29;20028;-90
2022/09/29 00:38:42;;;;;;;3.45;1.95;;;;;;;15.43;73.98;98353.25;4871508;29;20407;-91
2022/09/29 00:41:16;;;;;;;3.20;1.88;;;;;;;15.38;74.28;98358.03;4901127;29;20083;-90
2022/09/29 00:44:05;;;;;;;4.60;1.73;;;;;;;15.30;75.26;98365.91;4886029;29;20020;-90
2022/09/29 00:46:58;;;;;;;4.25;1.85;;;;;;;15.16;75.10;98349.03;4901119;29;20095;-90
2022/09/29 00:49:42;;;;;;;4.63;1.80;;;;;;;15.24;74.73;98364.47;4881008;29;20066;-90
2022/09/29 00:52:24;;;;;;;7.00;2.80;;;;;;;15.17;74.46;98353.34;4916934;29;20040;-90
2022/09/29 00:54:53;;;;;;;3.72;1.50;;;;;;;15.19;75.19;98366.56;4881803;29;20052;-90
2022/09/29 00:57:20;;;;;;;3.13;1.83;;;;;;;15.08;75.66;98358.78;4882250;29;20048;-90
2022/09/29 00:59:54;;;;;;;19.38;9.18;;;;;;;15.00;75.84;98356.09;4878772;29;20032;-90
2022/09/29 01:02:20;;;;;;;12.05;6.38;;;;;;;15.00;75.28;98342.53;4900828;29;20562;-90
2022/09/29 01:04:46;;;;;;;11.30;6.43;;;;;;;15.02;75.02;98343.00;4885017;29;20039;-90
2022/09/29 01:07:11;;;;;;;26.92;11.15;;;;;;;14.95;75.63;98347.00;4869836;29;20028;-90
2022/09/29 01:09:37;;;;;;;21.67;9.45;;;;;;;14.92;75.66;98344.97;4865992;29;20580;-90
2022/09/29 01:12:03;;;;;;;15.57;7.38;;;;;;;14.93;75.75;98338.41;4866442;29;20038;-90
2022/09/29 01:14:29;;;;;;;10.55;4.80;;;;;;;14.86;76.08;98345.47;4891434;29;20131;-91
2022/09/29 01:16:54;;;;;;;8.38;4.53;;;;;;;14.89;75.62;98344.81;4885159;29;20487;-90
2022/09/29 01:19:34;;;;;;;7.78;3.03;;;;;;;14.84;76.00;98340.34;4884631;29;20515;-90
2022/09/29 01:22:03;;;;;;;11.38;3.50;;;;;;;14.92;75.60;98342.25;4900488;29;20024;-90
2022/09/29 01:25:06;;;;;;;7.07;3.22;;;;;;;15.10;75.16;98367.38;4893123;29;20060;-90
2022/09/29 01:27:59;;;;;;;5.55;2.85;;;;;;;15.08;75.33;98364.19;4917071;29;20115;-90
2022/09/29 01:31:21;;;;;;;8.10;2.78;;;;;;;15.12;75.09;98367.06;4915672;29;20409;-90
2022/09/29 01:34:04;;;;;;;6.00;2.30;;;;;;;15.19;75.01;98361.13;4826542;29;20030;-90
2022/09/29 01:36:42;;;;;;;6.35;2.55;;;;;;;15.22;74.99;98364.00;4877035;29;20188;-90
2022/09/29 01:39:29;;;;;;;5.47;2.70;;;;;;;15.13;75.40;98366.75;4888347;29;20415;-90
2022/09/29 01:42:11;;;;;;;3.63;1.92;;;;;;;14.90;75.63;98349.09;4900220;29;20459;-90
2022/09/29 01:44:41;;;;;;;3.67;1.92;;;;;;;14.84;75.84;98353.13;4876930;29;20031;-90
2022/09/29 01:47:09;;;;;;;5.40;2.15;;;;;;;14.92;76.08;98366.66;4900156;29;20032;-89
2022/09/29 01:49:38;;;;;;;2.72;1.63;;;;;;;15.05;75.76;98367.56;4917228;29;20068;-90
2022/09/29 01:52:17;;;;;;;3.47;1.80;;;;;;;14.97;75.38;98349.41;4900813;29;20044;-89
2022/09/29 01:54:50;;;;;;;3.88;2.05;;;;;;;15.09;75.41;98365.81;4908596;29;20034;-90
2022/09/29 01:57:34;;;;;;;3.08;2.30;;;;;;;14.87;76.07;98357.88;4899718;29;20020;-90
2022/09/29 02:00:06;;;;;;;3.70;1.63;;;;;;;14.87;76.51;98379.56;4890498;29;20124;-90
2022/09/29 02:02:39;;;;;;;2.45;1.70;;;;;;;14.74;76.53;98359.66;4900440;29;20155;-90
2022/09/29 02:05:09;;;;;;;2.90;1.67;;;;;;;14.69;76.82;98351.69;4896355;29;20372;-90
2022/09/29 02:07:36;;;;;;;4.43;2.13;;;;;;;14.62;77.33;98352.16;4899685;29;20047;-89
2022/09/29 02:10:04;;;;;;;4.57;1.67;;;;;;;14.59;77.75;98362.84;4884073;29;20040;-90
2022/09/29 02:12:31;;;;;;;5.32;1.60;;;;;;;14.51;77.51;98356.31;4869776;29;20032;-91
2022/09/29 02:14:57;;;;;;;2.88;1.73;;;;;;;14.57;77.56;98371.31;4894260;29;20043;-91
2022/09/29 02:17:30;;;;;;;7.75;2.05;;;;;;;14.51;77.91;98367.91;4884007;29;20032;-90
2022/09/29 02:19:55;;;;;;;4.95;1.92;;;;;;;14.47;77.64;98377.00;4883653;29;20028;-90
2022/09/29 02:22:20;;;;;;;3.78;1.80;;;;;;;14.51;77.31;98381.47;4884113;29;20031;-90
2022/09/29 02:24:46;;;;;;;4.53;2.00;;;;;;;14.45;77.77;98377.31;4899323;29;20060;-90
2022/09/29 02:27:11;;;;;;;4.00;2.08;;;;;;;14.39;77.48;98383.22;4883686;29;20024;-90
2022/09/29 02:29:37;;;;;;;5.78;1.88;;;;;;;14.29;77.64;98382.41;4875541;29;20046;-90
2022/09/29 02:32:03;;;;;;;3.75;2.38;;;;;;;14.27;77.91;98395.47;4868800;29;20120;-90
2022/09/29 02:34:30;;;;;;;3.60;1.88;;;;;;;14.19;77.86;98392.75;4890308;29;20032;-90
2022/09/29 02:37:35;;;;;;;3.05;1.70;;;;;;;14.25;77.76;98413.94;4899114;29;20483;-90
2022/09/29 02:40:20;;;;;;;5.40;2.00;;;;;;;14.20;78.47;98421.44;4839534;29;20398;-89
2022/09/29 02:43:23;;;;;;;4.72;2.15;;;;;;;14.06;78.65;98418.84;4824525;29;20041;-91
2022/09/29 02:46:06;;;;;;;8.68;2.30;;;;;;;14.13;78.00;98419.97;4872201;29;20115;-89
2022/09/29 02:49:00;;;;;;;5.68;2.35;;;;;;;14.12;77.91;98414.88;4883516;29;20075;-90
2022/09/29 02:51:47;;;;;;;2.25;1.80;;;;;;;14.03;78.94;98417.56;4916484;29;20032;-89
2022/09/29 02:54:18;;;;;;;2.88;1.88;;;;;;;13.96;78.60;98403.69;4880533;29;20053;-90
2022/09/29 02:56:55;;;;;;;5.60;2.20;;;;;;;14.03;78.54;98424.88;4882621;29;20484;-90
2022/09/29 02:59:26;;;;;;;4.15;1.92;;;;;;;13.93;78.27;98405.13;4892769;29;20123;-90
2022/09/29 03:01:53;;;;;;;8.10;2.20;;;;;;;13.98;78.93;98412.28;4872940;29;20517;-94
2022/09/29 03:04:19;;;;;;;4.28;2.17;;;;;;;13.85;79.23;98408.59;4884083;29;20419;-89
2022/09/29 03:06:45;;;;;;;3.10;2.20;;;;;;;13.74;79.65;98393.75;4868730;29;20038;-90
2022/09/29 03:09:10;;;;;;;5.38;2.55;;;;;;;13.75;79.47;98398.84;4880171;29;20032;-90
2022/09/29 03:11:36;;;;;;;8.90;2.47;;;;;;;13.83;78.89;98399.19;4886811;29;20044;-90
2022/09/29 03:14:02;;;;;;;5.10;2.20;;;;;;;13.95;78.66;98419.13;4886901;29;20035;-90
2022/09/29 03:16:27;;;;;;;3.97;2.45;;;;;;;14.04;78.64;98421.06;4887378;29;20028;-89
2022/09/29 03:18:54;;;;;;;3.85;2.40;;;;;;;14.04;78.17;98405.63;4883669;29;20028;-90
2022/09/29 03:21:19;;;;;;;3.20;2.13;;;;;;;13.99;78.51;98408.47;4868659;29;20093;-92
2022/09/29 03:23:45;;;;;;;5.72;2.47;;;;;;;14.02;78.06;98409.75;4868241;29;20491;-92
2022/09/29 03:26:10;;;;;;;5.28;2.30;;;;;;;14.02;77.83;98405.13;4849844;29;20053;-91
2022/09/29 03:28:36;;;;;;;5.22;2.55;;;;;;;13.98;78.26;98414.19;4850325;29;20040;-91
2022/09/29 03:31:08;;;;;;;6.35;4.20;;;;;;;14.03;77.75;98411.34;4850560;29;20021;-92
2022/09/29 03:33:37;;;;;;;;;;;;;;;14.26;77.38;98439.13;4850588;29;20048;-92
2022/09/29 03:36:04;;;;;;;5.03;3.05;;;;;;;14.14;77.55;98416.16;4865599;29;19911;-91
2022/09/29 03:38:30;;;;;;;8.27;3.28;;;;;;;14.12;77.59;98417.59;4865511;29;20031;-92
2022/09/29 03:40:55;;;;;;;7.68;2.70;;;;;;;14.00;78.07;98420.09;4850583;29;20029;-91
2022/09/29 03:43:21;;;;;;;10.65;3.00;;;;;;;13.97;77.91;98420.75;4849586;29;20503;-91
2022/09/29 03:45:52;;;;;;;4.90;2.83;;;;;;;13.79;78.69;98406.34;4850323;29;20461;-91
2022/09/29 03:48:18;;;;;;;8.15;2.88;;;;;;;13.97;78.47;98437.75;4849740;29;20420;-92
2022/09/29 03:50:44;;;;;;;7.45;2.50;;;;;;;13.71;79.44;98432.25;4865049;29;20052;-92
2022/09/29 03:53:09;;;;;;;5.43;2.78;;;;;;;13.56;79.62;98429.97;4849638;29;20097;-92
2022/09/29 03:58:57;;;;;;;10.60;2.63;;;;;;;13.48;78.92;98426.09;4830342;29;20103;-92
2022/09/29 04:01:23;;;;;;;5.55;2.92;;;;;;;13.39;79.01;98434.19;4849252;29;20037;-92
2022/09/29 04:03:48;;;;;;;3.88;2.65;;;;;;;13.43;78.91;98445.19;4849954;29;20032;-92
2022/09/29 04:06:14;;;;;;;5.60;3.17;;;;;;;13.62;78.15;98445.75;4849640;29;20036;-91
2022/09/29 04:08:39;;;;;;;15.23;4.63;;;;;;;13.47;78.05;98430.72;4848588;29;20033;-91
2022/09/29 04:11:05;;;;;;;10.05;5.35;;;;;;;13.41;79.05;98431.97;4849332;29;20033;-92
2022/09/29 04:13:31;;;;;;;15.13;4.60;;;;;;;13.37;78.96;98424.78;4834394;29;20109;-92
2022/09/29 04:15:59;;;;;;;5.13;3.38;;;;;;;13.39;78.95;98417.97;4850168;29;20503;-92
2022/09/29 04:18:25;;;;;;;5.25;3.22;;;;;;;13.58;78.85;98447.47;4851106;29;20056;-90
2022/09/29 04:20:50;;;;;;;6.20;3.30;;;;;;;13.53;78.26;98432.19;4849075;29;20057;-90
2022/09/29 04:23:16;;;;;;;7.75;3.55;;;;;;;13.60;78.70;98441.75;4849314;29;20036;-90
2022/09/29 04:25:45;;;;;;;7.47;3.33;;;;;;;13.77;78.06;98451.84;4880035;29;20115;-90
2022/09/29 04:28:11;;;;;;;9.82;3.75;;;;;;;13.64;78.27;98423.81;4868031;29;20036;-89
2022/09/29 04:30:37;;;;;;;11.60;4.13;;;;;;;13.82;77.76;98438.19;4867265;29;20033;-89
2022/09/29 04:33:02;;;;;;;7.75;3.70;;;;;;;13.86;77.73;98447.25;4869878;29;20029;-90
2022/09/29 04:35:28;;;;;;;6.22;3.15;;;;;;;13.97;77.40;98445.88;4867621;29;20032;-92
2022/09/29 04:37:56;;;;;;;9.40;3.60;;;;;;;14.08;77.28;98458.00;4869387;29;20040;-92
2022/09/29 04:40:22;;;;;;;5.18;2.97;;;;;;;13.99;77.30;98445.59;4890010;29;20055;-91
2022/09/29 04:42:48;;;;;;;8.25;3.20;;;;;;;13.98;77.38;98436.63;4902178;29;20059;-93
2022/09/29 04:45:13;;;;;;;6.90;4.20;;;;;;;14.20;77.28;98462.84;4870189;29;20036;-92
2022/09/29 04:47:42;;;;;;;12.90;4.85;;;;;;;14.29;77.07;98469.06;4886891;29;20111;-96
2022/09/29 04:50:08;;;;;;;17.25;9.07;;;;;;;14.33;76.71;98458.41;4888231;29;20086;-94
2022/09/29 04:52:34;;;;;;;10.27;4.20;;;;;;;14.34;76.15;98446.47;4886876;29;20032;-92
2022/09/29 04:55:19;;;;;;;11.68;4.60;;;;;;;14.45;76.07;98460.50;4905674;29;20090;-93
2022/09/29 04:57:47;;;;;;;5.63;4.00;;;;;;;14.61;75.81;98458.13;4918392;29;20024;-95
2022/09/29 05:00:20;;;;;;;14.77;4.45;;;;;;;14.53;75.99;98449.66;4920367;29;20027;-94
2022/09/29 05:02:45;;;;;;;9.07;4.35;;;;;;;14.57;76.16;98459.88;4904587;29;20126;-93
2022/09/29 05:05:11;;;;;;;10.63;4.05;;;;;;;14.66;76.76;98475.03;4903750;29;20490;-94
2022/09/29 05:07:47;;;;;;;12.15;4.28;;;;;;;14.77;76.06;98486.38;4905288;29;20035;-95
2022/09/29 05:10:13;;;;;;;16.55;7.43;;;;;;;14.49;76.24;98470.38;4888792;29;20035;-92
2022/09/29 05:12:38;;;;;;;13.38;5.05;;;;;;;14.46;76.27;98471.00;4902346;29;20099;-93
2022/09/29 05:15:05;;;;;;;12.38;5.10;;;;;;;14.55;75.93;98476.44;4886255;29;20039;-88
2022/09/29 05:17:49;;;;;;;13.38;7.05;;;;;;;14.52;76.45;98475.16;4902822;29;20480;-91
2022/09/29 05:20:15;;;;;;;24.52;15.35;;;;;;;14.52;76.36;98469.72;4917261;29;20036;-91
2022/09/29 05:22:41;;;;;;;15.98;8.23;;;;;;;14.53;76.15;98474.03;4887418;29;20111;-91
2022/09/29 05:25:11;;;;;;;11.27;6.38;;;;;;;14.58;75.83;98483.97;4886833;29;20044;-89
2022/09/29 05:27:40;;;;;;;10.30;4.68;;;;;;;14.62;75.61;98487.63;4916539;29;20024;-90
2022/09/29 05:30:08;;;;;;;44.42;27.02;;;;;;;14.71;75.37;98488.44;4874318;29;20035;-94
2022/09/29 05:32:34;;;;;;;16.52;7.85;;;;;;;14.89;74.65;98502.78;4887910;29;20036;-93
2022/09/29 05:35:00;;;;;;;14.60;4.68;;;;;;;14.80;74.68;98474.13;4887791;29;20032;-93
2022/09/29 05:37:25;;;;;;;17.92;10.02;;;;;;;14.90;74.32;98485.44;4888822;29;20020;-92
2022/09/29 05:39:51;;;;;;;64.35;34.42;;;;;;;15.01;73.96;98479.69;4878714;29;20503;-95
2022/09/29 05:42:19;;;;;;;65.60;37.90;;;;;;;15.02;74.02;98465.00;4888141;29;20024;-91
2022/09/29 05:44:45;;;;;;;21.52;11.48;;;;;;;15.04;73.60;98487.97;4871725;29;20076;-91
2022/09/29 05:47:10;;;;;;;9.70;6.03;;;;;;;15.07;73.43;98487.34;4877333;29;20491;-89
2022/09/29 05:49:38;;;;;;;12.18;4.90;;;;;;;15.19;72.61;98464.19;4901251;29;20487;-89
2022/09/29 05:52:04;;;;;;;16.27;5.78;;;;;;;15.44;71.92;98482.34;4896699;29;20077;-91
2022/09/29 05:54:29;;;;;;;9.20;4.57;;;;;;;15.52;72.03;98470.69;4874888;29;20057;-93
2022/09/29 05:56:55;;;;;;;11.63;4.47;;;;;;;15.66;71.07;98473.19;4884995;29;20555;-93
2022/09/29 05:59:21;;;;;;;31.40;19.67;;;;;;;15.78;70.87;98469.03;4886394;29;20403;-92
2022/09/29 06:01:47;;;;;;;41.03;21.50;;;;;;;16.00;70.38;98473.41;4870466;29;20024;-91
2022/09/29 06:04:20;;;;;;;75.22;37.78;;;;;;;15.90;69.67;98452.88;4900889;29;20028;-91
2022/09/29 06:06:48;;;;;;;152.65;77.03;;;;;;;16.20;69.26;98475.38;4882041;29;20464;-93
2022/09/29 06:09:14;;;;;;;50.17;30.45;;;;;;;16.19;69.09;98449.34;4875205;29;20029;-90
2022/09/29 06:11:39;;;;;;;13.88;7.95;;;;;;;16.30;69.35;98461.44;4908043;29;20099;-92
2022/09/29 06:14:05;;;;;;;10.20;4.90;;;;;;;16.38;69.04;98473.38;4886380;29;20055;-92
2022/09/29 06:16:31;;;;;;;9.38;5.30;;;;;;;16.45;68.63;98461.97;4873067;29;20115;-93
2022/09/29 06:19:02;;;;;;;12.75;5.90;;;;;;;16.42;68.63;98454.50;4866046;29;20021;-92
2022/09/29 06:21:28;;;;;;;8.20;5.07;;;;;;;16.56;68.73;98465.91;4878281;29;20107;-92
2022/09/29 06:23:54;;;;;;;16.65;6.25;;;;;;;16.61;68.26;98454.84;4900484;29;20360;-92
2022/09/29 06:26:19;;;;;;;14.02;5.45;;;;;;;16.80;67.21;98473.41;4883022;29;20066;-93
2022/09/29 06:28:45;;;;;;;42.25;29.80;;;;;;;16.72;69.27;98466.09;4884769;29;20036;-91
2022/09/29 06:31:16;;;;;;;149.90;71.05;;;;;;;16.69;69.63;98473.00;4897820;29;20471;-92
2022/09/29 06:33:42;;;;;;;81.32;36.05;;;;;;;16.70;69.52;98460.19;4894700;29;20031;-93
2022/09/29 06:39:11;;;;;;;13.38;9.25;;;;;;;17.00;67.01;98471.84;4887767;29;20032;-91
2022/09/29 06:41:37;;;;;;;23.40;9.27;;;;;;;17.24;66.98;98489.38;4885499;29;20444;-90
2022/09/29 06:44:03;;;;;;;33.80;16.50;;;;;;;16.99;66.17;98453.13;4885798;29;20086;-90
2022/09/29 06:46:28;;;;;;;21.48;10.50;;;;;;;17.30;65.54;98474.44;4896129;29;20020;-90
2022/09/29 06:48:54;;;;;;;20.02;11.73;;;;;;;17.34;65.00;98457.09;4885951;29;20036;-94
2022/09/29 06:51:23;;;;;;;9.75;5.70;;;;;;;17.46;64.11;98447.41;4889465;29;20036;-91
2022/09/29 06:53:49;;;;;;;8.57;4.18;;;;;;;17.52;62.38;98444.13;4885197;29;20032;-91
2022/09/29 06:56:15;;;;;;;8.25;4.00;;;;;;;17.63;62.46;98440.97;4885298;29;20034;-91
2022/09/29 06:58:41;;;;;;;8.07;2.85;;;;;;;17.69;61.61;98437.66;4901390;29;20024;-94
2022/09/29 07:01:08;;;;;;;6.53;3.13;;;;;;;17.97;61.51;98464.25;4881352;29;20104;-91
2022/09/29 07:03:51;;;;;;;4.97;2.63;;;;;;;17.94;60.70;98438.50;4866766;29;20104;-91
2022/09/29 07:06:20;;;;;;;4.15;2.28;;;;;;;18.06;60.99;98448.63;4889885;29;20079;-89
2022/09/29 07:08:45;;;;;;;7.40;3.33;;;;;;;18.14;60.12;98444.19;4922209;29;20387;-94
2022/09/29 07:11:54;;;;;;;6.25;2.80;;;;;;;18.38;60.65;98452.31;4901280;29;20024;-92
2022/09/29 07:14:21;;;;;;;6.03;3.72;;;;;;;18.51;58.95;98446.84;4803682;29;20479;-90
2022/09/29 07:16:47;;;;;;;11.13;4.78;;;;;;;18.55;59.65;98443.13;4789168;29;20125;-89
2022/09/29 07:19:12;;;;;;;9.40;5.20;;;;;;;18.82;60.38;98459.09;4772758;29;20180;-92
2022/09/29 07:25:31;;;;;;;11.10;4.88;;;;;;;19.14;58.18;98460.00;4791136;29;20095;-93
2022/09/29 07:28:11;;;;;;;11.65;5.70;;;;;;;19.14;58.30;98443.63;4791469;29;20047;-90
2022/09/29 07:30:39;;;;;;;11.73;4.25;;;;;;;19.26;58.24;98459.13;4761197;29;20038;-92
2022/09/29 07:33:05;;;;;;;7.28;3.90;;;;;;;19.49;58.91;98460.16;4788414;29;20459;-90
2022/09/29 07:35:31;;;;;;;10.35;4.25;;;;;;;19.54;58.51;98445.47;4809283;29;20083;-91
2022/09/29 07:37:56;;;;;;;8.98;3.88;;;;;;;19.75;57.36;98456.16;4839414;29;20503;-90
2022/09/29 07:40:22;;;;;;;10.68;3.25;;;;;;;19.82;56.73;98450.91;4849774;29;20040;-91
2022/09/29 07:42:50;;;;;;;22.25;9.70;;;;;;;19.84;56.72;98442.31;4867289;29;20036;-90
2022/09/29 07:45:16;;;;;;;14.48;6.70;;;;;;;19.94;57.35;98441.78;4868644;29;20036;-92
2022/09/29 07:47:42;;;;;;;28.52;14.32;;;;;;;20.14;57.66;98456.31;4869300;29;20462;-91
2022/09/29 07:50:07;;;;;;;12.75;7.57;;;;;;;20.25;56.35;98449.16;4870144;29;20092;-93
2022/09/29 07:52:33;;;;;;;6.82;4.10;;;;;;;20.25;56.79;98431.97;4870739;29;20048;-94
2022/09/29 07:54:58;;;;;;;9.15;3.83;;;;;;;20.46;56.16;98446.13;4870376;29;20126;-92
2022/09/29 07:57:24;;;;;;;9.82;3.17;;;;;;;20.61;55.52;98435.50;4869606;29;20059;-91
2022/09/29 07:59:49;;;;;;;8.43;3.00;;;;;;;20.76;55.89;98438.19;4885059;29;20032;-90
2022/09/29 08:02:18;;;;;;;3.72;2.03;;;;;;;20.81;54.95;98433.59;4868218;29;20036;-90
2022/09/29 08:04:43;;;;;;;5.93;2.00;;;;;;;21.05;54.59;98452.47;4870908;29;20044;-90
2022/09/29 08:07:29;;;;;;;6.07;1.95;;;;;;;21.04;53.96;98439.91;4892245;29;20024;-91
2022/09/29 08:10:42;;;;;;;3.08;1.55;;;;;;;21.24;51.59;98435.22;4898190;29;20060;-92
2022/09/29 08:13:07;;;;;;;;;;;;;;;21.62;50.78;98466.44;4859243;29;20029;-90
2022/09/29 08:15:33;;;;;;;6.90;2.22;;;;;;;21.57;50.29;98442.09;4898152;29;20290;-92
2022/09/29 08:17:58;;;;;;;4.70;2.17;;;;;;;21.73;49.49;98448.25;4867350;29;20032;-92
2022/09/29 08:20:25;;;;;;;6.00;2.50;;;;;;;21.95;49.34;98446.66;4883011;29;20056;-93
2022/09/29 08:26:43;;;;;;;1.73;1.17;;;;;;;22.24;49.61;98441.63;4803483;29;20042;-93
2022/09/29 08:29:09;;;;;;;3.28;1.80;;;;;;;22.43;48.36;98453.66;4808521;29;20140;-91
2022/09/29 08:31:36;;;;;;;6.47;1.80;;;;;;;22.41;48.22;98451.28;4842840;29;20365;-93
2022/09/29 08:34:02;;;;;;;3.55;1.30;;;;;;;22.53;47.55;98451.06;4867412;29;20036;-92
2022/09/29 08:36:28;;;;;;;4.93;2.42;;;;;;;22.52;47.76;98445.97;4867152;29;20127;-92
2022/09/29 08:38:55;;;;;;;5.35;3.50;;;;;;;22.74;47.47;98461.56;4881306;29;20050;-92
2022/09/29 08:41:44;;;;;;;4.93;1.90;;;;;;;22.85;48.09;98475.41;4866626;29;20029;-91
2022/09/29 08:44:10;;;;;;;5.07;1.33;;;;;;;22.82;43.88;98481.63;4899312;29;20439;-93
2022/09/29 08:46:51;;;;;;;2.60;1.35;;;;;;;22.83;44.87;98464.03;4904319;29;20036;-90
2022/09/29 08:49:20;;;;;;;5.97;1.38;;;;;;;22.86;44.16;98451.50;4885798;29;20127;-90
2022/09/29 08:51:49;;;;;;;5.70;2.30;;;;;;;22.88;44.89;98449.94;4885820;29;20024;-91
2022/09/29 08:54:30;;;;;;;2.40;1.10;;;;;;;22.95;43.14;98455.53;4887324;29;20052;-92
2022/09/29 08:56:56;;;;;;;2.95;1.30;;;;;;;23.04;42.62;98454.50;4885608;29;20032;-89
2022/09/29 08:59:27;;;;;;;4.88;1.30;;;;;;;23.09;43.12;98454.16;4885841;29;20052;-90
2022/09/29 09:02:34;;;;;;;1.83;1.10;;;;;;;23.16;41.21;98449.53;4886566;29;20095;-91
2022/09/29 09:05:47;;;;;;;1.90;1.00;;;;;;;23.30;40.04;98462.63;4901939;29;20356;-89
2022/09/29 09:08:40;;;;;;;1.95;1.05;;;;;;;23.38;41.61;98458.78;4827436;29;20034;-92
2022/09/29 09:11:42;;;;;;;3.45;1.80;;;;;;;23.45;41.53;98457.28;4856515;29;20050;-95
2022/09/29 09:15:00;;;;;;;1.85;1.13;;;;;;;23.36;41.96;98439.13;4927531;29;20109;-96
2022/09/29 09:17:54;;;;;;;2.70;1.42;;;;;;;23.57;41.78;98455.06;4901810;29;20086;-90
2022/09/29 09:20:25;;;;;;;3.72;1.30;;;;;;;23.69;40.52;98456.72;4889613;29;20035;-89
2022/09/29 09:22:57;;;;;;;2.47;1.30;;;;;;;23.73;40.70;98454.03;4902132;29;20033;-90
2022/09/29 09:25:27;;;;;;;2.25;1.00;;;;;;;23.70;41.25;98443.78;4901188;29;20083;-91
2022/09/29 09:27:58;;;;;;;9.73;1.45;;;;;;;23.90;40.35;98461.66;4900487;29;20040;-89
2022/09/29 09:30:24;;;;;;;;;;;;;;;23.95;40.72;98453.06;4918158;29;20510;-92
2022/09/29 09:32:53;;;;;;;4.78;1.33;;;;;;;23.97;41.82;98438.94;4901252;29;19911;-90
2022/09/29 09:35:43;;;;;;;2.67;1.30;;;;;;;24.02;41.14;98435.06;4885654;29;20020;-91
2022/09/29 09:38:22;;;;;;;3.15;1.27;;;;;;;24.15;39.93;98450.06;4886007;29;20032;-90
2022/09/29 09:40:52;;;;;;;2.13;1.27;;;;;;;24.31;40.06;98455.28;4870335;29;20119;-90
2022/09/29 09:43:30;;;;;;;3.15;1.30;;;;;;;24.41;39.31;98452.59;4885565;29;20036;-92
2022/09/29 09:46:16;;;;;;;3.88;1.20;;;;;;;24.59;39.42;98463.75;4886845;29;20036;-92
2022/09/29 09:49:03;;;;;;;1.40;1.13;;;;;;;24.68;39.79;98459.88;4900242;29;20046;-91
2022/09/29 09:51:53;;;;;;;5.28;2.38;;;;;;;24.82;40.83;98457.19;4919056;29;20080;-93
2022/09/29 09:54:43;;;;;;;1.50;1.20;;;;;;;24.85;39.13;98459.16;4902781;29;20139;-92
2022/09/29 09:57:53;;;;;;;4.38;2.22;;;;;;;24.89;40.21;98459.19;4889706;29;20071;-91
2022/09/29 10:00:40;;;;;;;3.83;2.15;;;;;;;24.78;39.37;98448.13;4900032;29;20039;-89
2022/09/29 10:03:09;;;;;;;2.95;1.30;;;;;;;24.88;40.70;98441.88;4903990;29;20032;-90
2022/09/29 10:05:38;;;;;;;2.97;1.60;;;;;;;24.81;40.18;98428.84;4868806;29;20100;-89
2022/09/29 10:11:23;;;;;;;2.65;1.60;;;;;;;25.07;39.72;98457.28;4839443;29;20041;-92
2022/09/29 10:13:58;;;;;;;6.03;3.15;;;;;;;25.17;39.35;98456.53;4849265;29;20515;-95
2022/09/29 10:20:04;;;;;;;4.32;1.77;;;;;;;25.23;38.34;98426.66;4847581;29;20036;-93
2022/09/29 10:29:51;;;;;;;2.08;1.20;;;;;;;25.69;38.63;98428.69;4787704;29;20557;-93
2022/09/29 10:32:46;;;;;;;1.70;1.27;;;;;;;25.75;38.00;98412.53;4856509;29;20046;-92
2022/09/29 10:35:15;;;;;;;2.15;1.10;;;;;;;25.92;36.03;98416.50;4808375;29;20071;-91
2022/09/29 10:37:42;;;;;;;5.68;1.40;;;;;;;26.03;35.67;98431.09;4845082;29;20505;-93
2022/09/29 10:40:07;;;;;;;5.65;1.60;;;;;;;26.22;36.53;98432.63;4828621;29;20030;-90
2022/09/29 10:42:34;;;;;;;3.92;2.33;;;;;;;26.36;34.69;98421.56;4877493;29;20495;-95
2022/09/29 10:45:12;;;;;;;8.15;2.33;;;;;;;26.46;34.84;98410.88;4865919;29;20033;-92
2022/09/29 10:47:43;;;;;;;3.95;1.77;;;;;;;26.59;34.43;98409.31;4868671;29;20131;-94
2022/09/29 10:50:18;;;;;;;3.88;2.20;;;;;;;26.71;33.89;98408.06;4896783;29;20062;-90
2022/09/29 10:52:53;;;;;;;1.48;1.08;;;;;;;26.72;32.78;98391.09;4880894;29;20428;-90
2022/09/29 10:55:21;;;;;;;3.78;1.38;;;;;;;26.76;32.97;98396.63;4881285;29;20029;-91
2022/09/29 10:57:47;;;;;;;4.38;2.30;;;;;;;26.87;33.04;98400.09;4866483;29;20093;-92
2022/09/29 11:00:33;;;;;;;4.40;3.28;;;;;;;27.10;32.75;98415.38;4882637;29;20447;-93
2022/09/29 11:03:18;;;;;;;3.45;1.20;;;;;;;27.30;31.93;98418.47;4908817;29;20019;-95
2022/09/29 11:06:04;;;;;;;3.92;1.30;;;;;;;27.26;31.54;98406.66;4919784;29;20501;-92
2022/09/29 11:08:32;;;;;;;2.72;1.40;;;;;;;27.34;33.05;98400.66;4917190;29;20024;-92
2022/09/29 11:11:23;;;;;;;1.95;0.88;;;;;;;27.45;31.34;98411.66;4900580;29;20034;-91
2022/09/29 11:13:50;;;;;;;1.70;1.13;;;;;;;27.37;30.53;98401.81;4909145;29;20099;-90
2022/09/29 11:16:22;;;;;;;1.92;1.10;;;;;;;27.36;31.85;98400.28;4884667;29;20032;-92
2022/09/29 11:18:52;;;;;;;2.88;1.77;;;;;;;27.37;32.55;98415.66;4913323;29;20024;-96
2022/09/29 11:21:56;;;;;;;1.90;1.30;;;;;;;27.36;32.71;98414.88;4934012;29;20024;-96
2022/09/29 11:24:27;;;;;;;2.47;1.20;;;;;;;27.42;32.16;98413.25;4923208;29;20323;-96
2022/09/29 11:27:38;;;;;;;1.42;1.00;;;;;;;27.40;32.48;98401.81;4929552;29;20064;-94
2022/09/29 11:30:29;;;;;;;1.92;1.08;;;;;;;27.44;32.06;98407.31;4903254;29;20059;-96
2022/09/29 11:33:29;;;;;;;3.25;1.20;;;;;;;27.51;32.58;98421.09;4898881;29;20121;-95
2022/09/29 11:36:23;;;;;;;1.55;0.90;;;;;;;27.23;30.91;98393.63;4903075;29;20094;-92
2022/09/29 11:39:36;;;;;;;2.75;1.10;;;;;;;27.16;31.95;98397.97;4916909;29;20036;-96
2022/09/29 11:42:07;;;;;;;1.50;0.90;;;;;;;27.12;30.60;98411.06;4867615;29;20037;-96
2022/09/29 11:45:17;;;;;;;;;;;;;;;;;;;;;
2022/09/29 11:48:23;;;;;;;1.80;0.93;;;;;;;26.91;31.05;98411.94;4925539;29;20126;-96
2022/09/29 11:51:01;;;;;;;2.72;1.23;;;;;;;26.72;30.49;98404.13;4944722;29;20434;-96
2022/09/29 12:00:15;;;;;;;3.17;1.20;;;;;;;26.40;31.87;98416.06;4927247;29;20051;-95
2022/09/29 12:02:59;;;;;;;2.38;1.00;;;;;;;26.37;29.59;98431.41;4877890;29;20043;-93
2022/09/29 12:05:43;;;;;;;2.92;0.82;;;;;;;26.28;30.59;98416.47;4919888;29;20067;-94
2022/09/29 12:08:18;;;;;;;3.28;1.42;;;;;;;26.32;31.08;98422.78;4873632;29;20044;-93
2022/09/29 12:11:08;;;;;;;2.38;1.08;;;;;;;26.37;30.54;98428.66;4901986;29;20051;-91
2022/09/29 12:13:50;;;;;;;2.20;1.17;;;;;;;26.29;30.69;98418.03;4918989;29;20028;-92
2022/09/29 12:16:17;;;;;;;1.90;0.90;;;;;;;26.40;28.90;98416.06;4918674;29;20032;-90
2022/09/29 12:19:02;;;;;;;2.17;0.80;;;;;;;26.52;29.54;98428.63;4901815;29;20490;-94
2022/09/29 12:21:39;;;;;;;2.72;1.40;;;;;;;26.46;28.56;98408.94;4871799;29;20056;-91
2022/09/29 12:24:10;;;;;;;1.42;0.82;;;;;;;26.55;28.16;98416.78;4919940;29;20040;-94
2022/09/29 12:26:43;;;;;;;3.03;1.10;;;;;;;26.57;28.00;98408.94;4904926;29;20056;-96
2022/09/29 12:29:35;;;;;;;1.23;0.77;;;;;;;26.70;28.65;98429.38;4887455;29;20076;-95
2022/09/29 12:32:58;;;;;;;;;;;;;;;;;;;;;
2022/09/29 12:35:56;;;;;;;3.33;1.23;;;;;;;26.66;29.81;98405.72;4905662;29;20103;-94
2022/09/29 12:38:34;;;;;;;1.13;0.80;;;;;;;26.59;28.13;98398.28;4876785;29;20039;-95